Time;durP1;ratioP1;P1;durP2;ratioP2;P2;SDS_P1;SDS_P2;PMS_P1;PMS_P2;Temp;Humidity;BMP_temperature;BMP_pressure;BME280_temperature;BME280_humidity;BME280_pressure;Samples;Min_cycle;Max_cycle;Signal;HPM_P1;HPM_P2
2021/12/03 00:01:12;;;;;;;7.97;4.90;;;;;;;5.46;100.00;98666.78;5094378;28;20051;-76
2021/12/03 00:03:40;;;;;;;6.30;3.92;;;;;;;5.55;100.00;98668.00;5094867;28;20067;-75
2021/12/03 00:06:10;;;;;;;6.93;4.22;;;;;;;5.49;100.00;98665.72;5094488;28;20048;-76
2021/12/03 00:08:38;;;;;;;6.90;4.32;;;;;;;5.49;100.00;98668.38;5094539;28;20040;-74
2021/12/03 00:11:09;;;;;;;6.60;3.75;;;;;;;5.40;100.00;98676.91;5094520;28;20036;-74
2021/12/03 00:13:39;;;;;;;6.43;3.78;;;;;;;5.41;100.00;98683.91;5094499;28;20063;-74
2021/12/03 00:16:08;;;;;;;5.85;3.75;;;;;;;5.45;100.00;98690.69;5094596;28;20055;-75
2021/12/03 00:18:37;;;;;;;6.28;3.85;;;;;;;5.33;100.00;98680.91;5094386;28;20032;-75
2021/12/03 00:21:08;;;;;;;6.35;3.80;;;;;;;5.36;100.00;98678.06;5093940;28;20522;-75
2021/12/03 00:23:37;;;;;;;6.43;4.10;;;;;;;5.33;100.00;98665.88;5094177;28;20075;-76
2021/12/03 00:26:07;;;;;;;6.90;3.55;;;;;;;5.30;100.00;98679.28;5093937;28;20098;-75
2021/12/03 00:28:37;;;;;;;5.90;3.72;;;;;;;5.30;100.00;98681.06;5094201;28;20055;-75
2021/12/03 00:31:08;;;;;;;5.70;3.17;;;;;;;5.28;100.00;98690.91;5093752;28;20048;-76
2021/12/03 00:33:38;;;;;;;6.05;3.47;;;;;;;5.30;100.00;98694.28;5093687;28;20500;-76
2021/12/03 00:36:08;;;;;;;5.05;3.17;;;;;;;5.32;100.00;98692.44;5093753;28;20051;-76
2021/12/03 00:38:40;;;;;;;6.38;3.20;;;;;;;5.30;100.00;98697.78;5093003;28;20054;-76
2021/12/03 00:41:10;;;;;;;5.38;2.92;;;;;;;5.26;100.00;98700.72;5093728;28;20036;-77
2021/12/03 00:43:42;;;;;;;5.57;2.70;;;;;;;5.27;100.00;98710.34;5093671;28;20044;-76
2021/12/03 00:46:15;;;;;;;5.40;2.60;;;;;;;5.28;100.00;98712.06;5093884;28;20071;-76
2021/12/03 00:48:44;;;;;;;4.88;2.72;;;;;;;5.28;100.00;98714.69;5093883;28;20078;-76
2021/12/03 00:51:13;;;;;;;5.80;2.50;;;;;;;5.21;100.00;98713.38;5093141;28;20058;-78
2021/12/03 00:53:43;;;;;;;4.70;2.55;;;;;;;5.24;100.00;98724.63;5093785;28;20043;-77
2021/12/03 00:56:11;;;;;;;5.38;2.47;;;;;;;5.22;100.00;98730.97;5093406;28;20113;-76
2021/12/03 00:58:40;;;;;;;5.28;2.65;;;;;;;5.28;100.00;98719.97;5093552;28;20043;-72
2021/12/03 01:01:09;;;;;;;4.68;2.60;;;;;;;5.28;100.00;98725.28;5093642;28;20071;-72
2021/12/03 01:03:40;;;;;;;6.30;2.80;;;;;;;5.23;100.00;98732.66;5092796;28;20056;-68
2021/12/03 01:06:08;;;;;;;6.57;3.03;;;;;;;5.28;100.00;98728.75;5093628;28;20040;-69
2021/12/03 01:08:38;;;;;;;6.25;3.83;;;;;;;5.23;100.00;98728.22;5093335;28;20143;-69
2021/12/03 01:11:07;;;;;;;7.22;3.75;;;;;;;5.21;100.00;98724.81;5093140;28;20127;-71
2021/12/03 01:13:39;;;;;;;6.22;3.58;;;;;;;5.20;100.00;98727.53;5092856;28;20046;-69
2021/12/03 01:16:09;;;;;;;7.55;4.10;;;;;;;5.31;100.00;98730.38;5093167;28;20063;-69
2021/12/03 01:18:44;;;;;;;6.05;3.58;;;;;;;5.36;100.00;98728.28;5093259;28;20043;-69
2021/12/03 01:21:14;;;;;;;7.53;4.30;;;;;;;5.24;100.00;98735.19;5093059;28;20044;-77
2021/12/03 01:23:42;;;;;;;6.70;4.28;;;;;;;5.29;100.00;98722.53;5093195;28;20093;-74
2021/12/03 01:26:11;;;;;;;8.55;4.65;;;;;;;5.11;100.00;98743.03;5093267;28;20039;-74
2021/12/03 01:28:39;;;;;;;7.65;5.13;;;;;;;5.21;100.00;98747.75;5093089;28;20143;-74
2021/12/03 01:31:07;;;;;;;6.57;4.18;;;;;;;5.17;100.00;98739.16;5093250;28;20040;-74
2021/12/03 01:33:36;;;;;;;7.47;4.78;;;;;;;5.17;100.00;98745.28;5092482;28;20040;-75
2021/12/03 01:36:06;;;;;;;8.98;5.07;;;;;;;5.27;100.00;98745.56;5093218;28;20393;-74
2021/12/03 01:38:34;;;;;;;9.32;5.10;;;;;;;5.32;100.00;98743.50;5092816;28;20102;-74
2021/12/03 01:41:04;;;;;;;7.63;5.03;;;;;;;5.43;100.00;98745.47;5093187;28;20481;-74
2021/12/03 01:43:32;;;;;;;8.65;5.47;;;;;;;5.37;100.00;98745.84;5092520;28;20131;-73
2021/12/03 01:46:04;;;;;;;7.68;5.32;;;;;;;5.20;100.00;98736.31;5091495;28;20131;-73
2021/12/03 01:48:32;;;;;;;8.57;5.15;;;;;;;5.24;100.00;98752.84;5092809;28;20063;-73
2021/12/03 01:51:02;;;;;;;8.13;4.93;;;;;;;5.13;100.00;98754.38;5093093;28;20040;-73
2021/12/03 01:53:35;;;;;;;7.63;4.78;;;;;;;5.09;100.00;98768.69;5092425;28;20481;-74
2021/12/03 01:56:08;;;;;;;7.40;4.80;;;;;;;5.15;100.00;98762.22;5093098;28;20392;-74
2021/12/03 01:58:37;;;;;;;7.10;4.50;;;;;;;5.13;100.00;98764.09;5092433;28;20900;-73
2021/12/03 02:01:09;;;;;;;6.13;3.83;;;;;;;5.08;100.00;98767.00;5092913;28;20051;-73
2021/12/03 02:03:39;;;;;;;7.00;3.80;;;;;;;5.21;100.00;98763.59;5092695;28;20062;-73
2021/12/03 02:06:09;;;;;;;6.30;4.22;;;;;;;5.18;100.00;98756.72;5093034;28;20044;-74
2021/12/03 02:08:40;;;;;;;6.47;4.03;;;;;;;5.03;100.00;98763.81;5092663;28;20397;-74
2021/12/03 02:11:10;;;;;;;5.93;3.67;;;;;;;5.08;100.00;98767.00;5092636;28;20070;-74
2021/12/03 02:13:38;;;;;;;7.72;3.45;;;;;;;5.09;100.00;98767.84;5093312;28;20040;-73
2021/12/03 02:16:08;;;;;;;5.07;2.95;;;;;;;5.18;100.00;98772.56;5096635;28;20043;-71
2021/12/03 02:18:37;;;;;;;6.43;3.33;;;;;;;5.07;100.00;98775.88;5096004;28;20520;-71
2021/12/03 02:21:07;;;;;;;7.07;2.95;;;;;;;5.15;100.00;98773.63;5096219;28;20044;-71
2021/12/03 02:23:36;;;;;;;5.63;3.38;;;;;;;5.21;100.00;98776.81;5096055;28;20473;-71
2021/12/03 02:26:06;;;;;;;6.50;3.53;;;;;;;5.24;100.00;98781.94;5096490;28;20040;-71
2021/12/03 02:28:40;;;;;;;6.95;3.45;;;;;;;5.11;100.00;98774.75;5096188;28;20450;-71
2021/12/03 02:31:08;;;;;;;4.93;3.08;;;;;;;5.15;100.00;98783.34;5096553;28;20448;-71
2021/12/03 02:33:37;;;;;;;5.40;3.30;;;;;;;5.07;100.00;98783.81;5094361;28;20044;-71
2021/12/03 02:36:07;;;;;;;6.97;3.60;;;;;;;5.08;100.00;98788.16;5096405;28;20060;-71
2021/12/03 02:38:36;;;;;;;7.20;3.63;;;;;;;5.09;100.00;98803.06;5096063;28;20093;-71
2021/12/03 02:41:05;;;;;;;6.05;3.13;;;;;;;5.07;100.00;98789.09;5095756;28;20481;-71
2021/12/03 02:43:33;;;;;;;6.70;3.45;;;;;;;5.02;100.00;98804.41;5095655;28;20078;-71
2021/12/03 02:46:01;;;;;;;7.13;3.78;;;;;;;5.10;100.00;98802.13;5095881;28;20101;-71
2021/12/03 02:48:31;;;;;;;7.07;4.57;;;;;;;4.98;100.00;98816.06;5095800;28;20388;-71
2021/12/03 02:51:00;;;;;;;8.02;4.88;;;;;;;4.96;100.00;98809.19;5096054;28;20036;-71
2021/12/03 02:53:29;;;;;;;8.90;5.90;;;;;;;4.94;100.00;98811.94;5094365;28;20044;-71
2021/12/03 02:55:58;;;;;;;9.48;6.05;;;;;;;4.96;100.00;98817.97;5095967;28;20040;-71
2021/12/03 02:58:26;;;;;;;11.40;7.25;;;;;;;4.90;100.00;98815.69;5095661;28;20461;-71
2021/12/03 03:00:54;;;;;;;12.13;7.65;;;;;;;4.91;100.00;98821.81;5095796;28;20398;-71
2021/12/03 03:03:23;;;;;;;11.55;8.43;;;;;;;4.94;100.00;98821.66;5095241;28;20052;-71
2021/12/03 03:05:56;;;;;;;12.75;8.05;;;;;;;4.92;100.00;98834.94;5095743;28;20416;-71
2021/12/03 03:08:24;;;;;;;15.48;9.38;;;;;;;4.94;100.00;98837.50;5095098;28;20044;-71
2021/12/03 03:10:58;;;;;;;15.15;9.52;;;;;;;4.93;100.00;98841.94;5095676;28;20127;-71
2021/12/03 03:13:26;;;;;;;11.25;5.78;;;;;;;4.98;100.00;98862.78;5095039;28;20051;-71
2021/12/03 03:15:55;;;;;;;18.80;11.02;;;;;;;4.94;100.00;98863.94;5095505;28;20393;-71
2021/12/03 03:18:25;;;;;;;18.95;11.88;;;;;;;4.93;100.00;98851.66;5095263;28;20428;-72
2021/12/03 03:20:55;;;;;;;18.67;12.52;;;;;;;4.94;100.00;98869.22;5095256;28;20058;-75
2021/12/03 03:23:24;;;;;;;19.90;12.93;;;;;;;4.97;100.00;98864.59;5095133;28;20047;-75
2021/12/03 03:25:55;;;;;;;20.30;11.73;;;;;;;4.88;100.00;98870.41;5094576;28;20040;-75
2021/12/03 03:28:24;;;;;;;23.27;14.55;;;;;;;4.87;100.00;98882.78;5095789;28;20032;-76
2021/12/03 03:30:56;;;;;;;28.83;16.55;;;;;;;4.87;100.00;98889.84;5095056;28;20043;-73
2021/12/03 03:33:26;;;;;;;19.90;12.23;;;;;;;4.85;100.00;98882.03;5094614;28;20044;-72
2021/12/03 03:35:55;;;;;;;23.88;13.85;;;;;;;4.84;100.00;98890.03;5095219;28;20040;-75
2021/12/03 03:38:26;;;;;;;25.40;15.55;;;;;;;4.80;100.00;98888.50;5094853;28;20051;-75
2021/12/03 03:40:56;;;;;;;25.20;14.40;;;;;;;4.75;100.00;98874.72;5095412;28;20036;-74
2021/12/03 03:43:24;;;;;;;28.08;16.83;;;;;;;4.79;100.00;98882.38;5095043;28;20044;-77
2021/12/03 03:45:53;;;;;;;24.67;16.50;;;;;;;4.76;100.00;98892.28;5095036;28;20097;-75
2021/12/03 03:48:21;;;;;;;29.20;16.98;;;;;;;4.81;100.00;98906.06;5094636;28;20044;-77
2021/12/03 03:50:50;;;;;;;27.65;16.70;;;;;;;4.79;100.00;98903.50;5094635;28;20044;-75
2021/12/03 03:53:22;;;;;;;25.85;15.75;;;;;;;4.79;100.00;98907.94;5095076;28;20048;-75
2021/12/03 03:55:50;;;;;;;27.20;17.08;;;;;;;4.82;100.00;98923.59;5094463;28;20509;-75
2021/12/03 03:58:20;;;;;;;30.52;16.85;;;;;;;4.81;100.00;98914.81;5094838;28;20074;-74
2021/12/03 04:00:48;;;;;;;25.63;15.55;;;;;;;4.77;100.00;98920.41;5094591;28;20047;-75
2021/12/03 04:03:17;;;;;;;25.17;16.35;;;;;;;4.80;100.00;98920.19;5094655;28;20109;-75
2021/12/03 04:05:45;;;;;;;27.00;17.58;;;;;;;4.75;100.00;98922.28;5092644;28;20051;-75
2021/12/03 04:08:14;;;;;;;26.80;15.90;;;;;;;4.77;100.00;98930.97;5094514;28;20054;-75
2021/12/03 04:10:42;;;;;;;24.70;16.05;;;;;;;4.72;100.00;98933.84;5094253;28;20374;-76
2021/12/03 04:13:13;;;;;;;28.13;16.42;;;;;;;4.74;100.00;98931.16;5094543;28;20044;-75
2021/12/03 04:15:43;;;;;;;24.38;16.15;;;;;;;4.72;100.00;98936.50;5093059;28;20074;-76
2021/12/03 04:18:12;;;;;;;22.70;13.98;;;;;;;4.80;100.00;98936.06;5094525;28;20074;-75
2021/12/03 04:20:40;;;;;;;24.52;14.77;;;;;;;4.72;100.00;98944.41;5093959;28;20127;-74
2021/12/03 04:23:09;;;;;;;24.15;15.60;;;;;;;4.71;100.00;98947.16;5094452;28;20044;-75
2021/12/03 04:25:37;;;;;;;23.55;14.32;;;;;;;4.69;100.00;98954.31;5093862;28;20048;-73
2021/12/03 04:28:06;;;;;;;22.95;14.82;;;;;;;4.70;100.00;98956.88;5094120;28;20050;-73
2021/12/03 04:30:34;;;;;;;21.98;13.27;;;;;;;4.66;100.00;98965.06;5093891;28;20232;-74
2021/12/03 04:33:06;;;;;;;14.63;10.02;;;;;;;4.58;100.00;98970.78;5093757;28;20079;-75
2021/12/03 04:35:35;;;;;;;16.60;11.13;;;;;;;4.50;100.00;98973.84;5093518;28;20194;-75
2021/12/03 04:38:05;;;;;;;19.75;10.95;;;;;;;4.46;100.00;98982.03;5093809;28;20048;-75
2021/12/03 04:40:35;;;;;;;21.95;12.90;;;;;;;4.43;100.00;98990.94;5093564;28;20055;-73
2021/12/03 04:43:03;;;;;;;25.55;15.55;;;;;;;4.49;100.00;99003.81;5094115;28;20040;-73
2021/12/03 04:45:32;;;;;;;25.95;16.25;;;;;;;4.51;100.00;99015.13;5093265;28;20103;-74
2021/12/03 04:48:04;;;;;;;26.10;14.65;;;;;;;4.57;100.00;99025.38;5093924;28;20040;-74
2021/12/03 04:50:36;;;;;;;23.08;13.82;;;;;;;4.52;100.00;99029.19;5093203;28;20071;-74
2021/12/03 04:53:05;;;;;;;26.35;15.27;;;;;;;4.45;100.00;99028.69;5093502;28;20040;-73
2021/12/03 04:55:35;;;;;;;18.85;11.32;;;;;;;4.50;100.00;99037.19;5093696;28;20429;-74
2021/12/03 04:58:05;;;;;;;22.10;14.48;;;;;;;4.48;100.00;99046.16;5093716;28;20509;-73
2021/12/03 05:00:36;;;;;;;22.42;14.80;;;;;;;4.51;100.00;99053.91;5093286;28;20044;-76
2021/12/03 05:03:04;;;;;;;23.85;15.15;;;;;;;4.48;100.00;99057.56;5093647;28;20439;-75
2021/12/03 05:05:34;;;;;;;22.73;14.50;;;;;;;4.46;100.00;99058.59;5093299;28;20366;-76
2021/12/03 05:08:08;;;;;;;23.35;14.70;;;;;;;4.47;100.00;99050.59;5093506;28;20098;-75
2021/12/03 05:10:39;;;;;;;23.42;12.38;;;;;;;4.50;100.00;99066.25;5092990;28;20070;-74
2021/12/03 05:13:10;;;;;;;21.95;14.25;;;;;;;4.53;100.00;99060.78;5092229;28;20134;-75
2021/12/03 05:15:39;;;;;;;20.50;14.02;;;;;;;4.50;100.00;99052.19;5093143;28;20044;-72
2021/12/03 05:18:09;;;;;;;21.08;13.77;;;;;;;4.57;100.00;99078.19;5093514;28;20401;-69
2021/12/03 05:20:41;;;;;;;21.40;14.00;;;;;;;4.56;100.00;99094.97;5092761;28;20039;-69
2021/12/03 05:23:09;;;;;;;21.00;12.60;;;;;;;4.53;100.00;99091.63;5093479;28;20051;-71
2021/12/03 05:25:38;;;;;;;22.17;14.15;;;;;;;4.47;100.00;99103.41;5092895;28;20048;-70
2021/12/03 05:28:07;;;;;;;24.95;15.15;;;;;;;4.48;100.00;99099.81;5093289;28;20423;-72
2021/12/03 05:30:37;;;;;;;24.35;14.70;;;;;;;4.41;100.00;99124.84;5092927;28;20083;-71
2021/12/03 05:33:07;;;;;;;27.33;16.40;;;;;;;4.43;100.00;99122.09;5092901;28;20082;-71
2021/12/03 05:35:36;;;;;;;26.10;15.50;;;;;;;4.33;100.00;99132.31;5092839;28;20043;-69
2021/12/03 05:38:09;;;;;;;20.27;14.20;;;;;;;4.42;100.00;99137.09;5093204;28;20438;-69
2021/12/03 05:40:37;;;;;;;26.98;15.13;;;;;;;4.44;100.00;99143.19;5092724;28;20078;-69
2021/12/03 05:43:05;;;;;;;24.30;15.23;;;;;;;4.41;100.00;99148.59;5093292;28;20044;-69
2021/12/03 05:45:36;;;;;;;26.58;15.57;;;;;;;4.38;100.00;99154.06;5092691;28;20047;-72
2021/12/03 05:48:05;;;;;;;27.25;14.35;;;;;;;4.42;100.00;99168.78;5093201;28;20044;-71
2021/12/03 05:50:34;;;;;;;26.60;14.60;;;;;;;4.40;100.00;99165.38;5096977;28;20433;-72
2021/12/03 05:53:03;;;;;;;24.20;13.63;;;;;;;4.40;100.00;99178.56;5097286;28;20485;-71
2021/12/03 05:55:33;;;;;;;25.27;15.30;;;;;;;4.37;100.00;99201.66;5097016;28;20051;-72
2021/12/03 05:58:01;;;;;;;26.10;14.73;;;;;;;4.33;100.00;99187.75;5097002;28;20089;-71
2021/12/03 06:00:32;;;;;;;25.17;12.88;;;;;;;4.28;100.00;99200.34;5096772;28;20044;-69
2021/12/03 06:03:01;;;;;;;22.40;13.15;;;;;;;4.32;100.00;99215.94;5097027;28;20492;-69
2021/12/03 06:05:30;;;;;;;22.50;13.43;;;;;;;4.29;100.00;99224.00;5096775;28;20122;-69
2021/12/03 06:07:59;;;;;;;23.77;13.13;;;;;;;4.23;100.00;99226.94;5096955;28;20082;-69
2021/12/03 06:10:27;;;;;;;22.40;13.75;;;;;;;4.29;100.00;99220.53;5096923;28;20064;-69
2021/12/03 06:12:58;;;;;;;23.20;13.60;;;;;;;4.26;100.00;99237.38;5096688;28;20598;-68
2021/12/03 06:15:26;;;;;;;23.20;12.90;;;;;;;4.22;100.00;99234.97;5096846;28;20048;-69
2021/12/03 06:17:55;;;;;;;25.00;12.63;;;;;;;4.24;100.00;99235.72;5096550;28;20051;-68
2021/12/03 06:20:24;;;;;;;24.30;13.35;;;;;;;4.19;100.00;99243.88;5096674;28;20393;-68
2021/12/03 06:22:53;;;;;;;24.48;12.60;;;;;;;4.19;100.00;99245.69;5096037;28;20617;-69
2021/12/03 06:25:22;;;;;;;21.05;10.93;;;;;;;4.15;100.00;99239.72;5096665;28;20074;-69
2021/12/03 06:27:51;;;;;;;20.95;11.20;;;;;;;4.18;100.00;99255.38;5096042;28;20512;-68
2021/12/03 06:30:23;;;;;;;22.88;11.15;;;;;;;4.15;100.00;99260.81;5096582;28;20403;-69
2021/12/03 06:32:52;;;;;;;18.88;10.60;;;;;;;3.99;100.00;99255.44;5096416;28;20385;-68
2021/12/03 06:35:21;;;;;;;15.60;8.57;;;;;;;4.00;100.00;99265.06;5096157;28;20047;-69
2021/12/03 06:37:50;;;;;;;17.88;9.43;;;;;;;4.01;100.00;99279.97;5095788;28;20493;-70
2021/12/03 06:40:22;;;;;;;17.90;9.02;;;;;;;4.07;100.00;99296.44;5096070;28;20493;-70
2021/12/03 06:42:50;;;;;;;17.02;8.32;;;;;;;4.02;100.00;99297.50;5095972;28;20037;-71
2021/12/03 06:45:21;;;;;;;16.45;8.70;;;;;;;3.99;100.00;99305.56;5096153;28;20131;-72
2021/12/03 06:47:49;;;;;;;14.80;7.85;;;;;;;3.95;100.00;99322.47;5095982;28;20040;-71
2021/12/03 06:50:20;;;;;;;15.65;8.20;;;;;;;3.96;100.00;99318.91;5096226;28;20044;-71
2021/12/03 06:52:54;;;;;;;14.70;7.03;;;;;;;3.94;100.00;99330.44;5094707;28;20052;-71
2021/12/03 06:55:22;;;;;;;17.80;6.65;;;;;;;3.89;100.00;99330.69;5096134;28;20097;-71
2021/12/03 06:57:51;;;;;;;12.70;7.03;;;;;;;3.81;100.00;99324.91;5095748;28;20073;-71
2021/12/03 07:00:22;;;;;;;14.68;7.13;;;;;;;3.88;100.00;99321.06;5094736;28;20440;-70
2021/12/03 07:02:51;;;;;;;13.00;6.30;;;;;;;3.83;100.00;99322.19;5095527;28;20481;-70
2021/12/03 07:05:19;;;;;;;15.57;7.07;;;;;;;3.79;100.00;99345.25;5095758;28;20401;-70
2021/12/03 07:07:48;;;;;;;13.05;6.85;;;;;;;3.79;100.00;99344.38;5095524;28;20044;-70
2021/12/03 07:10:16;;;;;;;14.00;6.82;;;;;;;3.79;100.00;99362.84;5095789;28;20147;-70
2021/12/03 07:12:44;;;;;;;16.23;6.35;;;;;;;3.72;100.00;99360.50;5095538;28;20043;-70
2021/12/03 07:15:13;;;;;;;14.05;4.88;;;;;;;3.71;100.00;99368.47;5095277;28;20048;-68
2021/12/03 07:17:43;;;;;;;13.45;5.35;;;;;;;3.64;100.00;99369.69;5094993;28;20047;-69
2021/12/03 07:20:12;;;;;;;12.15;6.00;;;;;;;3.67;100.00;99377.47;5094036;28;20491;-68
2021/12/03 07:22:40;;;;;;;13.95;5.50;;;;;;;3.68;100.00;99387.09;5093916;28;20052;-69
2021/12/03 07:25:09;;;;;;;13.48;4.85;;;;;;;3.63;100.00;99396.97;5095262;28;20044;-68
2021/12/03 07:27:38;;;;;;;7.72;3.38;;;;;;;3.70;100.00;99406.34;5095174;28;20062;-72
2021/12/03 07:30:09;;;;;;;10.80;4.35;;;;;;;3.67;100.00;99424.94;5094264;28;20058;-69
2021/12/03 07:32:38;;;;;;;11.70;4.80;;;;;;;3.60;100.00;99427.00;5095095;28;20040;-69
2021/12/03 07:35:09;;;;;;;11.80;5.00;;;;;;;3.65;100.00;99435.53;5095239;28;20469;-72
2021/12/03 07:37:38;;;;;;;10.90;4.57;;;;;;;3.65;100.00;99439.94;5095145;28;20040;-72
2021/12/03 07:40:08;;;;;;;10.27;4.97;;;;;;;3.68;100.00;99451.25;5094595;28;20063;-72
2021/12/03 07:42:37;;;;;;;10.63;3.47;;;;;;;3.68;100.00;99474.13;5094979;28;20040;-68
2021/12/03 07:45:08;;;;;;;13.65;5.00;;;;;;;3.70;100.00;99486.31;5094965;28;20439;-69
2021/12/03 07:47:37;;;;;;;10.73;4.07;;;;;;;3.69;100.00;99495.16;5095091;28;20051;-67
2021/12/03 07:50:07;;;;;;;10.57;4.10;;;;;;;3.66;100.00;99499.69;5094786;28;20044;-68
2021/12/03 07:52:37;;;;;;;9.55;4.13;;;;;;;3.76;100.00;99510.69;5094691;28;20131;-69
2021/12/03 07:55:07;;;;;;;11.60;4.03;;;;;;;3.82;100.00;99502.50;5094698;28;20040;-68
2021/12/03 07:57:36;;;;;;;11.50;4.53;;;;;;;3.77;100.00;99502.72;5094568;28;20131;-68
2021/12/03 08:00:05;;;;;;;8.25;3.83;;;;;;;3.81;100.00;99503.44;5093916;28;20097;-68
2021/12/03 08:02:34;;;;;;;12.88;4.50;;;;;;;3.81;100.00;99512.22;5094190;28;20052;-68
2021/12/03 08:05:04;;;;;;;10.05;4.40;;;;;;;3.80;100.00;99514.94;5094208;28;20052;-68
2021/12/03 08:07:33;;;;;;;9.25;3.65;;;;;;;3.75;100.00;99525.66;5094368;28;20044;-68
2021/12/03 08:10:04;;;;;;;7.32;3.80;;;;;;;3.76;100.00;99530.00;5094283;28;20044;-68
2021/12/03 08:12:32;;;;;;;7.88;3.35;;;;;;;3.81;99.43;99535.97;5093941;28;20048;-68
2021/12/03 08:15:00;;;;;;;10.50;3.13;;;;;;;3.73;97.88;99546.84;5094249;28;20511;-68
2021/12/03 08:17:29;;;;;;;9.13;3.50;;;;;;;3.80;96.01;99560.63;5094182;28;20473;-68
2021/12/03 08:19:58;;;;;;;9.85;3.45;;;;;;;3.74;98.39;99560.88;5094043;28;20078;-68
2021/12/03 08:22:28;;;;;;;8.27;3.25;;;;;;;3.75;100.00;99565.22;5094366;28;20048;-68
2021/12/03 08:24:57;;;;;;;7.85;3.47;;;;;;;3.69;100.00;99579.56;5095137;28;20047;-68
2021/12/03 08:27:26;;;;;;;6.82;2.58;;;;;;;3.69;99.36;99574.28;5094470;28;20101;-68
2021/12/03 08:29:55;;;;;;;10.05;3.30;;;;;;;3.59;100.00;99593.19;5094011;28;20424;-68
2021/12/03 08:32:23;;;;;;;7.00;3.13;;;;;;;3.62;100.00;99596.56;5093884;28;20044;-68
2021/12/03 08:34:51;;;;;;;8.38;3.65;;;;;;;3.58;100.00;99602.03;5093306;28;20084;-68
2021/12/03 08:37:20;;;;;;;10.25;3.97;;;;;;;3.66;100.00;99606.03;5094206;28;20048;-68
2021/12/03 08:39:48;;;;;;;7.63;3.65;;;;;;;3.66;100.00;99611.31;5092446;28;20055;-68
2021/12/03 08:42:18;;;;;;;9.32;3.20;;;;;;;3.62;100.00;99608.88;5093821;28;20423;-68
2021/12/03 08:44:48;;;;;;;8.98;3.55;;;;;;;3.69;100.00;99613.00;5093993;28;20044;-68
2021/12/03 08:47:17;;;;;;;8.23;3.28;;;;;;;3.72;100.00;99620.75;5093862;28;20047;-68
2021/12/03 08:49:49;;;;;;;7.15;2.83;;;;;;;3.71;100.00;99629.59;5093497;28;20044;-73
2021/12/03 08:52:44;;;;;;;8.15;3.28;;;;;;;3.72;100.00;99641.88;5093686;28;20143;-68
2021/12/03 08:55:13;;;;;;;5.47;2.83;;;;;;;3.84;100.00;99636.06;5093930;28;20075;-68
2021/12/03 08:57:41;;;;;;;8.15;3.28;;;;;;;3.80;100.00;99655.59;5093746;28;20131;-68
2021/12/03 09:00:14;;;;;;;10.40;4.03;;;;;;;3.87;100.00;99651.78;5093420;28;20101;-68
2021/12/03 09:02:44;;;;;;;9.05;3.30;;;;;;;3.93;100.00;99646.22;5093343;28;20055;-68
2021/12/03 09:05:13;;;;;;;8.27;3.20;;;;;;;3.97;99.75;99647.84;5093546;28;20122;-68
2021/12/03 09:07:43;;;;;;;9.50;3.33;;;;;;;3.99;98.61;99651.25;5093137;28;20451;-68
2021/12/03 09:10:20;;;;;;;7.70;3.20;;;;;;;3.93;99.33;99654.16;5093708;28;20093;-68
2021/12/03 09:12:48;;;;;;;8.10;2.90;;;;;;;3.88;98.06;99666.69;5093282;28;20048;-68
2021/12/03 09:15:24;;;;;;;7.95;2.75;;;;;;;3.94;95.10;99669.06;5093488;28;20519;-68
2021/12/03 09:18:12;;;;;;;6.75;3.10;;;;;;;3.95;98.00;99672.53;5093208;28;20043;-68
2021/12/03 09:20:53;;;;;;;6.65;2.42;;;;;;;3.91;97.43;99685.03;5093488;28;20040;-67
2021/12/03 09:23:28;;;;;;;8.32;2.95;;;;;;;3.92;96.14;99676.19;5092703;28;20571;-68
2021/12/03 09:26:05;;;;;;;7.13;1.95;;;;;;;4.03;96.21;99692.41;5093184;28;20539;-68
2021/12/03 09:28:34;;;;;;;9.77;2.63;;;;;;;4.08;95.45;99689.59;5093097;28;20040;-68
2021/12/03 09:31:04;;;;;;;7.38;2.70;;;;;;;4.14;93.37;99696.38;5091839;28;20052;-68
2021/12/03 09:33:35;;;;;;;6.35;2.88;;;;;;;4.21;94.21;99687.28;5092878;28;20036;-68
2021/12/03 09:36:04;;;;;;;6.53;2.67;;;;;;;4.24;94.18;99681.84;5092994;28;20052;-68
2021/12/03 09:38:34;;;;;;;4.63;2.08;;;;;;;4.22;85.58;99694.28;5093164;28;20098;-68
2021/12/03 09:41:11;;;;;;;7.32;1.88;;;;;;;4.19;80.10;99683.84;5092779;28;20139;-68
2021/12/03 09:43:42;;;;;;;5.18;1.67;;;;;;;4.27;67.73;99692.31;5093063;28;20495;-68
2021/12/03 09:46:20;;;;;;;7.65;2.00;;;;;;;4.31;69.94;99704.44;5093003;28;20091;-68
2021/12/03 09:51:41;;;;;;;5.68;1.80;;;;;;;4.41;62.08;99705.75;5084227;28;20063;-67
2021/12/03 09:54:26;;;;;;;6.38;1.75;;;;;;;4.45;61.46;99701.22;5092927;28;20123;-67
2021/12/03 09:56:59;;;;;;;3.92;1.35;;;;;;;4.58;61.69;99705.03;5092461;28;20047;-68
2021/12/03 10:14:07;;;;;;;3.28;1.48;;;;;;;4.70;56.87;99714.19;5092526;28;20054;-68
2021/12/03 10:16:50;;;;;;;3.60;1.33;;;;;;;4.72;56.74;99715.81;5092605;28;20123;-67
2021/12/03 10:19:31;;;;;;;6.05;1.70;;;;;;;4.85;59.70;99724.94;5092923;28;20048;-67
2021/12/03 10:25:07;;;;;;;6.65;2.08;;;;;;;4.58;68.40;99712.94;5085434;28;20048;-68
2021/12/03 10:36:17;;;;;;;7.53;2.60;;;;;;;4.33;69.78;99731.63;5095001;28;20106;-69
2021/12/03 10:38:57;;;;;;;7.18;2.40;;;;;;;4.25;67.87;99729.34;5096313;28;20040;-68
2021/12/03 10:41:34;;;;;;;8.05;2.50;;;;;;;4.22;67.97;99736.50;5095993;28;20443;-68
2021/12/03 10:44:12;;;;;;;6.60;2.50;;;;;;;4.30;71.25;99734.41;5096026;28;20051;-68
2021/12/03 10:46:51;;;;;;;4.20;2.03;;;;;;;4.25;67.26;99731.97;5096326;28;20097;-67
2021/12/03 10:49:41;;;;;;;5.15;2.20;;;;;;;4.25;64.88;99736.41;5095971;28;20040;-68
2021/12/03 11:07:18;;;;;;;3.72;1.50;;;;;;;4.46;61.76;99751.31;5078380;28;20056;-67
2021/12/03 11:41:58;;;;;;;3.60;1.52;;;;;;;4.54;54.41;99790.63;5093834;28;20085;-68
2021/12/03 11:59:19;;;;;;;4.35;1.60;;;;;;;4.85;47.56;99806.00;5055832;28;20057;-68
2021/12/03 12:25:39;;;;;;;6.45;2.53;;;;;;;4.59;56.56;99821.19;5051542;28;20142;-67
2021/12/03 14:39:41;;;;;;;8.32;4.18;;;;;;;3.12;72.89;99960.53;5053680;28;20422;-68
2021/12/03 14:45:10;;;;;;;8.02;3.85;;;;;;;3.21;71.35;99977.81;5090608;28;20044;-67
2021/12/03 14:56:03;;;;;;;8.35;3.80;;;;;;;3.01;74.13;99993.44;5084785;28;20054;-68
2021/12/03 14:58:39;;;;;;;9.88;3.78;;;;;;;2.99;74.73;99988.22;5095433;28;20489;-69
2021/12/03 15:01:16;;;;;;;7.07;3.50;;;;;;;2.99;74.33;99989.97;5095739;28;20094;-68
2021/12/03 15:04:02;;;;;;;8.32;3.78;;;;;;;2.96;73.36;99990.09;5095970;28;20056;-67
2021/12/03 15:06:36;;;;;;;9.55;3.50;;;;;;;2.83;74.98;99990.50;5095527;28;20058;-67
2021/12/03 15:09:14;;;;;;;8.88;3.92;;;;;;;2.77;74.48;99988.06;5095908;28;20044;-67
2021/12/03 15:12:14;;;;;;;11.10;4.35;;;;;;;2.84;72.83;100001.91;5095743;28;20044;-68
2021/12/03 15:23:11;;;;;;;9.82;4.32;;;;;;;2.73;71.63;100012.78;5094884;28;20055;-68
2021/12/03 15:31:42;;;;;;;9.73;3.90;;;;;;;2.59;71.55;100014.97;5092632;28;20067;-66
2021/12/03 15:34:18;;;;;;;6.78;3.10;;;;;;;2.57;70.62;100016.81;5095385;28;20433;-68
2021/12/03 15:37:05;;;;;;;6.45;3.35;;;;;;;2.56;69.63;100026.47;5095012;28;20097;-68
2021/12/03 16:04:32;;;;;;;10.32;3.55;;;;;;;2.24;68.76;100068.72;5094823;28;20040;-67
2021/12/03 16:07:12;;;;;;;10.82;3.90;;;;;;;2.24;68.90;100072.19;5094338;28;20044;-68
2021/12/03 16:09:58;;;;;;;7.43;3.67;;;;;;;2.24;68.40;100079.22;5094131;28;20486;-68
2021/12/03 16:12:37;;;;;;;9.30;3.85;;;;;;;2.06;70.07;100082.38;5094178;28;20051;-68
2021/12/03 16:18:31;;;;;;;7.88;3.80;;;;;;;1.98;70.48;100093.13;5086948;28;20138;-67
2021/12/03 16:27:03;;;;;;;6.55;3.85;;;;;;;1.97;68.95;100099.28;5078318;28;20097;-68
2021/12/03 16:43:45;;;;;;;9.70;4.00;;;;;;;1.66;69.76;100110.63;5093710;28;20044;-68
2021/12/03 16:46:23;;;;;;;12.82;4.53;;;;;;;1.55;70.43;100107.41;5093750;28;20051;-68
2021/12/03 16:51:49;;;;;;;9.95;4.25;;;;;;;1.68;68.53;100124.59;5093878;28;20036;-68
2021/12/03 16:54:42;;;;;;;8.23;3.70;;;;;;;1.59;69.18;100135.34;5093716;28;20040;-67
2021/12/03 16:57:12;;;;;;;9.57;4.68;;;;;;;1.44;71.68;100130.47;5093838;28;20044;-68
2021/12/03 16:59:43;;;;;;;11.15;4.55;;;;;;;1.37;70.42;100132.41;5093596;28;20067;-67
2021/12/03 17:02:16;;;;;;;11.52;4.30;;;;;;;1.46;70.19;100123.44;5093604;28;20097;-68
2021/12/03 17:49:28;;;;;;;;;;;;;;;0.69;76.18;100128.75;5131489;28;20043;-67
2021/12/03 17:52:10;;;;;;;12.75;4.97;;;;;;;0.82;74.46;100146.81;5130978;28;19920;-68
2021/12/03 17:54:47;;;;;;;13.90;6.28;;;;;;;0.70;75.10;100151.47;5130877;28;20118;-68